createdAt,value
2023-01-25T00:00:06.319Z,0
2023-01-25T00:01:05.512Z,0
2023-01-25T00:02:06.161Z,0
2023-01-25T00:03:06.006Z,0
2023-01-25T00:04:05.997Z,0
2023-01-25T00:05:06.261Z,0
2023-01-25T00:06:05.999Z,0
2023-01-25T00:07:06.133Z,0
2023-01-25T00:08:05.855Z,0
2023-01-25T00:09:05.602Z,0
2023-01-25T00:10:12.392Z,0
2023-01-25T00:11:07.656Z,0
2023-01-25T00:12:05.575Z,0
2023-01-25T00:13:06.107Z,0
2023-01-25T00:14:06.035Z,0
2023-01-25T00:15:05.956Z,0
2023-01-25T00:16:06.000Z,0
2023-01-25T00:17:05.284Z,0
2023-01-25T00:18:05.954Z,0
2023-01-25T00:19:05.732Z,0
2023-01-25T00:20:05.924Z,0
2023-01-25T00:21:05.605Z,0
2023-01-25T00:22:05.654Z,0
2023-01-25T00:23:05.322Z,0
2023-01-25T00:24:05.640Z,0
2023-01-25T00:25:06.162Z,0
2023-01-25T00:26:07.017Z,0
2023-01-25T00:27:05.771Z,0
2023-01-25T00:28:05.873Z,0
2023-01-25T00:29:05.474Z,0
2023-01-25T00:30:05.719Z,0
2023-01-25T00:31:05.691Z,0
2023-01-25T00:32:06.761Z,0
2023-01-25T00:33:05.645Z,0
2023-01-25T00:34:05.704Z,0
2023-01-25T00:35:05.466Z,0
2023-01-25T00:36:05.057Z,0
2023-01-25T00:37:05.451Z,0
2023-01-25T00:38:05.402Z,0
2023-01-25T00:39:04.992Z,0
2023-01-25T00:40:05.558Z,0
2023-01-25T00:41:04.980Z,0
2023-01-25T00:42:04.980Z,0
2023-01-25T00:43:05.213Z,0
2023-01-25T00:44:05.604Z,0
2023-01-25T00:45:05.123Z,0
2023-01-25T00:46:05.401Z,0
2023-01-25T00:47:05.089Z,0
2023-01-25T00:48:05.321Z,0
2023-01-25T00:49:05.284Z,0
2023-01-25T00:50:04.803Z,0
2023-01-25T00:51:05.278Z,0
2023-01-25T00:52:05.047Z,0
2023-01-25T00:53:05.250Z,0
2023-01-25T00:54:05.411Z,0
2023-01-25T00:55:05.014Z,0
2023-01-25T00:56:04.894Z,0
2023-01-25T00:57:04.864Z,0
2023-01-25T00:58:04.596Z,0
2023-01-25T00:59:04.586Z,0
2023-01-25T01:00:04.314Z,0
2023-01-25T01:01:05.325Z,0
2023-01-25T01:02:04.835Z,0
2023-01-25T01:03:04.826Z,0
2023-01-25T01:04:06.846Z,0
2023-01-25T01:05:05.732Z,0
2023-01-25T01:06:04.707Z,0
2023-01-25T01:07:04.761Z,0
2023-01-25T01:08:04.935Z,0
2023-01-25T01:09:04.916Z,0
2023-01-25T01:10:05.016Z,0
2023-01-25T01:11:04.927Z,0
2023-01-25T01:12:04.318Z,0
2023-01-25T01:13:04.564Z,0
2023-01-25T01:14:04.821Z,0
2023-01-25T01:15:05.116Z,0
2023-01-25T01:16:04.217Z,0
2023-01-25T01:17:07.301Z,0
2023-01-25T01:18:04.187Z,0
2023-01-25T01:19:04.175Z,0
2023-01-25T01:20:04.564Z,0
2023-01-25T01:21:04.411Z,0
2023-01-25T01:22:04.147Z,0
2023-01-25T01:23:04.396Z,0
2023-01-25T01:24:05.271Z,0
2023-01-25T01:25:04.590Z,0
2023-01-25T01:26:04.322Z,0
2023-01-25T01:27:04.236Z,0
2023-01-25T01:28:04.220Z,0
2023-01-25T01:29:04.219Z,0
2023-01-25T01:30:04.196Z,0
2023-01-25T01:31:04.165Z,0
2023-01-25T01:32:05.015Z,0
2023-01-25T01:33:04.644Z,0
2023-01-25T01:34:35.672Z,0
2023-01-25T01:35:04.386Z,0
2023-01-25T01:36:03.570Z,0
2023-01-25T01:37:03.808Z,0
2023-01-25T01:38:04.346Z,0
2023-01-25T01:39:04.370Z,0
2023-01-25T01:40:04.089Z,0
2023-01-25T01:41:04.015Z,0
2023-01-25T01:42:04.321Z,0
2023-01-25T01:43:03.951Z,0
2023-01-25T01:44:04.212Z,0
2023-01-25T01:45:03.932Z,0
2023-01-25T01:46:04.237Z,0
2023-01-25T01:47:04.142Z,0
2023-01-25T01:48:03.834Z,0
2023-01-25T01:49:04.077Z,0
2023-01-25T01:50:03.997Z,0
2023-01-25T01:51:03.244Z,0
2023-01-25T01:52:03.734Z,0
2023-01-25T01:53:03.263Z,0
2023-01-25T01:54:04.029Z,0
2023-01-25T01:55:03.629Z,0
2023-01-25T01:56:03.679Z,0
2023-01-25T01:57:03.675Z,0
2023-01-25T01:58:03.709Z,0
2023-01-25T01:59:03.352Z,0
2023-01-25T02:00:03.911Z,0
2023-01-25T02:01:04.072Z,0
2023-01-25T02:02:03.019Z,0
2023-01-25T02:03:04.131Z,0
2023-01-25T02:04:03.516Z,0
2023-01-25T02:05:03.477Z,0
2023-01-25T02:06:03.825Z,0
2023-01-25T02:07:03.689Z,0
2023-01-25T02:08:03.320Z,0
2023-01-25T02:09:03.876Z,0
2023-01-25T02:10:03.391Z,0
2023-01-25T02:11:03.413Z,0
2023-01-25T02:12:03.763Z,0
2023-01-25T02:13:03.337Z,0
2023-01-25T02:14:03.612Z,0
2023-01-25T02:15:03.536Z,0
2023-01-25T02:16:03.586Z,0
2023-01-25T02:17:03.013Z,0
2023-01-25T02:18:03.467Z,0
2023-01-25T02:19:03.198Z,0
2023-01-25T02:20:03.417Z,0
2023-01-25T02:21:05.065Z,0
2023-01-25T02:22:02.924Z,0
2023-01-25T02:23:03.349Z,0
2023-01-25T02:24:03.065Z,0
2023-01-25T02:25:03.181Z,0
2023-01-25T02:26:03.332Z,0
2023-01-25T02:27:03.315Z,0
2023-01-25T02:28:03.033Z,0
2023-01-25T02:29:03.217Z,0
2023-01-25T02:30:03.331Z,0
2023-01-25T02:31:02.983Z,0
2023-01-25T02:32:03.612Z,0
2023-01-25T02:33:02.906Z,0
2023-01-25T02:34:03.213Z,0
2023-01-25T02:35:03.124Z,0
2023-01-25T02:36:02.782Z,0
2023-01-25T02:37:03.075Z,0
2023-01-25T02:38:02.542Z,0
2023-01-25T02:39:03.068Z,0
2023-01-25T02:40:02.771Z,0
2023-01-25T02:41:03.042Z,0
2023-01-25T02:42:02.723Z,0
2023-01-25T02:43:02.716Z,0
2023-01-25T02:44:02.687Z,0
2023-01-25T02:45:02.659Z,0
2023-01-25T02:46:03.171Z,0
2023-01-25T02:47:02.891Z,0
2023-01-25T02:48:02.865Z,0
2023-01-25T02:49:02.857Z,0
2023-01-25T02:50:02.559Z,0
2023-01-25T02:51:02.522Z,0
2023-01-25T02:52:02.620Z,0
2023-01-25T02:53:02.472Z,0
2023-01-25T02:54:02.511Z,0
2023-01-25T02:55:02.185Z,0
2023-01-25T02:56:01.917Z,0
2023-01-25T02:57:02.510Z,0
2023-01-25T02:58:01.934Z,0
2023-01-25T02:59:02.131Z,0
2023-01-25T03:00:02.392Z,0
2023-01-25T03:01:02.499Z,0
2023-01-25T03:02:02.914Z,0
2023-01-25T03:03:03.146Z,0
2023-01-25T03:04:02.536Z,0
2023-01-25T03:05:02.227Z,0
2023-01-25T03:06:02.016Z,0
2023-01-25T03:07:02.235Z,0
2023-01-25T03:08:02.171Z,0
2023-01-25T03:09:02.399Z,0
2023-01-25T03:10:02.149Z,0
2023-01-25T03:11:01.850Z,0
2023-01-25T03:12:01.840Z,0
2023-01-25T03:13:02.326Z,0
2023-01-25T03:14:02.105Z,0
2023-01-25T03:15:02.067Z,0
2023-01-25T03:16:02.450Z,0
2023-01-25T03:17:01.469Z,0
2023-01-25T03:18:04.177Z,0
2023-01-25T03:19:01.931Z,0
2023-01-25T03:20:02.202Z,0
2023-01-25T03:21:01.364Z,0
2023-01-25T03:22:01.892Z,0
2023-01-25T03:23:01.859Z,0
2023-01-25T03:24:02.490Z,0
2023-01-25T03:25:02.108Z,0
2023-01-25T03:26:01.791Z,0
2023-01-25T03:27:02.204Z,0
2023-01-25T03:28:01.811Z,0
2023-01-25T03:29:01.997Z,0
2023-01-25T03:30:01.780Z,0
2023-01-25T03:31:02.271Z,0
2023-01-25T03:32:02.599Z,0
2023-01-25T03:33:01.392Z,0
2023-01-25T03:50:02.769Z,0
2023-01-25T03:51:02.076Z,0
2023-01-25T03:52:01.839Z,0
2023-01-25T03:53:02.056Z,0
2023-01-25T03:54:02.640Z,0
2023-01-25T03:55:02.571Z,0
2023-01-25T03:56:02.521Z,0
2023-01-25T03:57:01.967Z,0
2023-01-25T03:58:01.919Z,0
2023-01-25T03:59:01.892Z,0
2023-01-25T04:00:02.295Z,0
2023-01-25T04:01:02.008Z,0
2023-01-25T04:02:02.550Z,0
2023-01-25T04:03:02.079Z,0
2023-01-25T04:04:01.529Z,0
2023-01-25T04:05:02.055Z,0
2023-01-25T04:06:02.464Z,0
2023-01-25T04:07:01.974Z,0
2023-01-25T04:08:01.717Z,0
2023-01-25T04:09:01.978Z,0
2023-01-25T04:10:01.950Z,0
2023-01-25T04:11:01.899Z,0
2023-01-25T04:12:01.913Z,0
2023-01-25T04:13:01.850Z,0
2023-01-25T04:14:01.594Z,0
2023-01-25T04:15:01.811Z,0
2023-01-25T04:16:01.840Z,0
2023-01-25T04:17:01.986Z,0
2023-01-25T04:18:01.775Z,0
2023-01-25T04:19:01.746Z,0
2023-01-25T04:20:01.804Z,0
2023-01-25T04:21:02.067Z,0
2023-01-25T04:22:02.055Z,0
2023-01-25T04:23:01.929Z,0
2023-01-25T04:24:02.092Z,0
2023-01-25T04:25:01.596Z,0
2023-01-25T04:26:01.357Z,0
2023-01-25T04:27:01.309Z,0
2023-01-25T04:28:01.803Z,0
2023-01-25T04:29:02.011Z,0
2023-01-25T04:30:01.266Z,0
2023-01-25T04:31:01.487Z,0
2023-01-25T04:32:02.478Z,0
2023-01-25T04:33:01.456Z,0
2023-01-25T04:34:01.663Z,0
2023-01-25T04:35:01.162Z,0
2023-01-25T04:36:01.397Z,0
2023-01-25T04:37:01.597Z,0
2023-01-25T04:38:01.695Z,0
2023-01-25T04:39:01.273Z,0
2023-01-25T04:40:01.604Z,0
2023-01-25T04:41:00.791Z,0
2023-01-25T04:42:01.485Z,0
2023-01-25T04:43:01.229Z,0
2023-01-25T04:44:01.208Z,0
2023-01-25T04:45:00.671Z,0
2023-01-25T04:46:00.922Z,0
2023-01-25T04:47:00.886Z,0
2023-01-25T04:48:00.857Z,0
2023-01-25T04:49:00.582Z,0
2023-01-25T04:50:01.325Z,0
2023-01-25T04:51:01.345Z,0
2023-01-25T04:52:00.799Z,0
2023-01-25T04:53:01.034Z,0
2023-01-25T04:54:01.393Z,0
2023-01-25T04:55:00.966Z,0
2023-01-25T04:56:01.033Z,0
2023-01-25T04:57:01.186Z,0
2023-01-25T04:58:01.219Z,0
2023-01-25T04:59:01.178Z,0
2023-01-25T05:00:00.631Z,0
2023-01-25T05:01:01.050Z,0
2023-01-25T05:02:00.953Z,0
2023-01-25T05:03:01.060Z,0
2023-01-25T05:04:00.789Z,0
2023-01-25T05:05:01.325Z,0
2023-01-25T05:06:00.991Z,0
2023-01-25T05:07:01.228Z,0
2023-01-25T05:08:01.214Z,0
2023-01-25T05:09:00.914Z,0
2023-01-25T05:10:01.297Z,0
2023-01-25T05:11:00.875Z,0
2023-01-25T05:12:00.878Z,0
2023-01-25T05:13:00.348Z,0
2023-01-25T05:14:00.448Z,0
2023-01-25T05:15:00.563Z,0
2023-01-25T05:16:01.043Z,0
2023-01-25T05:17:01.469Z,0
2023-01-25T05:18:00.815Z,0
2023-01-25T05:19:00.724Z,0
2023-01-25T05:20:00.459Z,0
2023-01-25T05:21:00.399Z,0
2023-01-25T05:22:00.433Z,0
2023-01-25T05:23:00.961Z,0
2023-01-25T05:24:00.945Z,0
2023-01-25T05:25:00.659Z,0
2023-01-25T05:26:00.955Z,0
2023-01-25T05:27:00.045Z,0
2023-01-25T05:28:00.553Z,0
2023-01-25T05:29:00.504Z,0
2023-01-25T05:30:00.647Z,0
2023-01-25T05:31:01.172Z,0
2023-01-25T05:32:00.642Z,0
2023-01-25T05:33:00.166Z,0
2023-01-25T05:34:00.429Z,0
2023-01-25T05:35:02.133Z,0
2023-01-25T05:35:59.863Z,0
2023-01-25T05:37:00.099Z,0
2023-01-25T05:38:00.075Z,0
2023-01-25T05:39:00.561Z,0
2023-01-25T05:40:00.265Z,0
2023-01-25T05:40:59.988Z,0
2023-01-25T05:42:00.637Z,0
2023-01-25T05:43:00.229Z,0
2023-01-25T05:44:00.182Z,0
2023-01-25T05:44:59.930Z,0
2023-01-25T05:46:00.268Z,0
2023-01-25T05:46:59.620Z,0
2023-01-25T05:48:00.715Z,0
2023-01-25T05:49:00.920Z,0
2023-01-25T05:50:00.345Z,0
2023-01-25T05:51:00.584Z,0
2023-01-25T05:52:00.270Z,0
2023-01-25T05:53:00.290Z,0
2023-01-25T05:54:00.226Z,0
2023-01-25T05:55:00.244Z,0
2023-01-25T05:56:00.473Z,0
2023-01-25T05:57:00.219Z,0
2023-01-25T05:58:00.942Z,0
2023-01-25T05:58:59.883Z,0
2023-01-25T06:00:00.133Z,0
2023-01-25T06:01:01.754Z,0
2023-01-25T06:01:59.827Z,0
2023-01-25T06:03:01.720Z,0
2023-01-25T06:04:00.345Z,0
2023-01-25T06:05:00.557Z,0
2023-01-25T06:06:00.111Z,0
2023-01-25T06:07:00.219Z,0
2023-01-25T06:07:59.939Z,0
2023-01-25T06:08:59.948Z,0
2023-01-25T06:09:59.963Z,0
2023-01-25T06:11:00.428Z,0
2023-01-25T06:12:00.150Z,0
2023-01-25T06:13:00.674Z,0
2023-01-25T06:14:01.077Z,0
2023-01-25T06:15:00.917Z,0
2023-01-25T06:16:00.916Z,0
2023-01-25T06:17:00.569Z,0
2023-01-25T06:18:00.833Z,0
2023-01-25T06:19:00.760Z,0
2023-01-25T06:20:00.503Z,0
2023-01-25T06:21:00.185Z,0
2023-01-25T06:22:00.708Z,0
2023-01-25T06:23:00.684Z,0
2023-01-25T06:24:01.358Z,0
2023-01-25T06:25:00.615Z,0
2023-01-25T06:26:00.606Z,0
2023-01-25T06:27:00.579Z,0
2023-01-25T06:28:00.463Z,0
2023-01-25T06:29:02.134Z,0
2023-01-25T06:30:00.909Z,0
2023-01-25T06:31:00.565Z,0
2023-01-25T06:32:00.857Z,0
2023-01-25T06:33:00.463Z,0
2023-01-25T06:34:02.099Z,0
2023-01-25T06:35:00.356Z,0
2023-01-25T06:36:00.184Z,0
2023-01-25T06:37:00.664Z,0
2023-01-25T06:38:00.116Z,0
2023-01-25T06:39:00.684Z,0
2023-01-25T06:40:00.319Z,0
2023-01-25T06:41:00.530Z,0
2023-01-25T06:41:59.750Z,0
2023-01-25T06:43:00.526Z,0
2023-01-25T06:44:00.527Z,0
2023-01-25T06:45:00.556Z,0
2023-01-25T06:46:00.473Z,0
2023-01-25T06:47:00.790Z,0
2023-01-25T06:48:00.167Z,0
2023-01-25T06:49:00.439Z,0
2023-01-25T06:50:00.355Z,0
2023-01-25T06:50:59.875Z,0
2023-01-25T06:51:59.820Z,0
2023-01-25T06:53:00.041Z,0
2023-01-25T06:53:59.304Z,0
2023-01-25T06:54:59.761Z,0
2023-01-25T06:55:59.985Z,5
2023-01-25T06:57:00.214Z,5
2023-01-25T06:57:59.967Z,5
2023-01-25T06:58:59.716Z,5
2023-01-25T06:59:59.655Z,5
2023-01-25T07:01:00.159Z,5
2023-01-25T07:02:00.697Z,5
2023-01-25T07:02:59.991Z,5
2023-01-25T07:03:59.834Z,5
2023-01-25T07:05:00.054Z,5
2023-01-25T07:06:00.079Z,10
2023-01-25T07:06:59.772Z,10
2023-01-25T07:07:59.873Z,10
2023-01-25T07:08:59.700Z,10
2023-01-25T07:09:59.679Z,10
2023-01-25T07:10:59.670Z,10
2023-01-25T07:11:59.650Z,10
2023-01-25T07:12:59.168Z,10
2023-01-25T07:13:59.616Z,15
2023-01-25T07:14:59.850Z,15
2023-01-25T07:15:59.818Z,15
2023-01-25T07:17:00.683Z,15
2023-01-25T07:18:16.372Z,15
2023-01-25T07:18:59.584Z,15
2023-01-25T07:19:59.479Z,15
2023-01-25T07:20:59.487Z,20
2023-01-25T07:21:59.686Z,20
2023-01-25T07:23:01.872Z,20
2023-01-25T07:23:59.899Z,20
2023-01-25T07:24:59.653Z,20
2023-01-25T07:25:59.615Z,20
2023-01-25T07:26:59.244Z,20
2023-01-25T07:27:59.586Z,25
2023-01-25T07:28:59.569Z,25
2023-01-25T07:29:59.537Z,25
2023-01-25T07:30:59.552Z,25
2023-01-25T07:31:59.416Z,25
2023-01-25T07:32:59.504Z,30
2023-01-25T07:33:59.597Z,30
2023-01-25T07:34:59.632Z,30
2023-01-25T07:35:59.415Z,30
2023-01-25T07:36:59.223Z,35
2023-01-25T07:37:59.169Z,35
2023-01-25T07:38:59.367Z,35
2023-01-25T07:39:58.827Z,35
2023-01-25T07:40:58.828Z,35
2023-01-25T07:41:59.090Z,35
2023-01-25T07:42:59.036Z,40
2023-01-25T07:43:58.757Z,40
2023-01-25T07:44:58.476Z,40
2023-01-25T07:45:59.245Z,40
2023-01-25T07:46:59.075Z,40
2023-01-25T07:47:59.165Z,45
2023-01-25T07:48:59.179Z,45
2023-01-25T07:49:59.265Z,45
2023-01-25T07:50:59.023Z,50
2023-01-25T07:51:58.836Z,50
2023-01-25T07:52:59.060Z,50
2023-01-25T07:53:58.804Z,50
2023-01-25T07:54:58.773Z,55
2023-01-25T07:55:58.751Z,55
2023-01-25T07:56:58.232Z,55
2023-01-25T07:57:58.491Z,55
2023-01-25T07:58:58.503Z,55
2023-01-25T07:59:59.058Z,60
2023-01-25T08:00:58.894Z,60
2023-01-25T08:01:58.724Z,60
2023-01-25T08:02:58.614Z,60
2023-01-25T08:03:58.330Z,65
2023-01-25T08:04:58.584Z,65
2023-01-25T08:05:58.697Z,65
2023-01-25T08:06:58.270Z,70
2023-01-25T08:07:58.549Z,70
2023-01-25T08:08:58.547Z,70
2023-01-25T08:09:58.075Z,75
2023-01-25T08:10:58.453Z,75
2023-01-25T08:11:58.476Z,75
2023-01-25T08:12:58.404Z,80
2023-01-25T08:13:58.349Z,80
2023-01-25T08:14:58.439Z,80
2023-01-25T08:15:57.855Z,80
2023-01-25T08:16:58.059Z,80
2023-01-25T08:17:58.352Z,80
2023-01-25T08:18:57.774Z,80
2023-01-25T08:19:58.038Z,85
2023-01-25T08:20:58.005Z,85
2023-01-25T08:21:58.606Z,85
2023-01-25T08:22:58.258Z,85
2023-01-25T08:23:58.801Z,85
2023-01-25T08:24:58.418Z,90
2023-01-25T08:25:58.217Z,90
2023-01-25T08:26:58.281Z,90
2023-01-25T08:27:58.149Z,90
2023-01-25T08:28:58.041Z,90
2023-01-25T08:29:58.531Z,95
2023-01-25T08:31:06.970Z,95
2023-01-25T08:31:58.499Z,95
2023-01-25T08:32:58.265Z,95
2023-01-25T08:33:57.910Z,100
2023-01-25T08:34:57.724Z,100
2023-01-25T08:35:57.955Z,100
2023-01-25T08:36:59.027Z,105
2023-01-25T08:37:58.564Z,105
2023-01-25T08:38:57.903Z,110
2023-01-25T08:39:58.449Z,105
2023-01-25T08:40:58.423Z,110
2023-01-25T08:41:57.833Z,110
2023-01-25T08:42:58.285Z,110
2023-01-25T08:43:58.109Z,110
2023-01-25T08:44:58.071Z,110
2023-01-25T08:45:58.030Z,110
2023-01-25T08:46:58.370Z,115
2023-01-25T08:47:58.005Z,115
2023-01-25T08:48:57.754Z,120
2023-01-25T08:49:57.944Z,120
2023-01-25T08:50:57.678Z,120
2023-01-25T08:51:58.900Z,120
2023-01-25T08:52:58.123Z,120
2023-01-25T08:53:58.226Z,125
2023-01-25T08:54:57.854Z,125
2023-01-25T08:55:58.111Z,125
2023-01-25T08:56:57.838Z,130
2023-01-25T08:57:59.075Z,130
2023-01-25T08:58:58.638Z,130
2023-01-25T08:59:58.657Z,130
2023-01-25T09:00:58.645Z,130
2023-01-25T09:01:58.586Z,130
2023-01-25T09:02:58.316Z,130
2023-01-25T09:03:59.133Z,130
2023-01-25T09:04:58.071Z,135
2023-01-25T09:05:58.275Z,140
2023-01-25T09:06:58.049Z,135
2023-01-25T09:07:58.229Z,135
2023-01-25T09:08:58.251Z,135
2023-01-25T09:09:58.345Z,135
2023-01-25T09:10:58.005Z,135
2023-01-25T09:11:58.127Z,145
2023-01-25T09:12:58.320Z,145
2023-01-25T09:13:58.146Z,145
2023-01-25T09:14:58.029Z,150
2023-01-25T09:15:57.807Z,150
2023-01-25T09:16:58.056Z,145
2023-01-25T09:17:58.339Z,145
2023-01-25T09:18:59.982Z,150
2023-01-25T09:19:58.164Z,150
2023-01-25T09:20:58.252Z,150
2023-01-25T09:21:58.225Z,155
2023-01-25T09:22:58.191Z,155
2023-01-25T09:24:16.412Z,155
2023-01-25T09:24:58.026Z,155
2023-01-25T09:25:58.374Z,155
2023-01-25T09:27:08.579Z,155
2023-01-25T09:27:57.996Z,155
2023-01-25T09:28:58.097Z,155
2023-01-25T09:30:24.618Z,155
2023-01-25T09:31:30.146Z,165
2023-01-25T09:31:58.165Z,170
2023-01-25T09:32:58.860Z,165
2023-01-25T09:33:57.447Z,170
2023-01-25T09:34:57.567Z,175
2023-01-25T09:35:57.655Z,175
2023-01-25T09:36:57.965Z,170
2023-01-25T09:37:57.880Z,170
2023-01-25T09:38:57.898Z,170
2023-01-25T09:39:58.002Z,170
2023-01-25T09:40:57.328Z,170
2023-01-25T09:42:03.705Z,170
2023-01-25T09:42:57.271Z,175
2023-01-25T09:44:04.520Z,180
2023-01-25T09:44:57.289Z,190
2023-01-25T09:45:57.238Z,190
2023-01-25T09:46:57.485Z,195
2023-01-25T09:47:57.494Z,190
2023-01-25T09:49:16.052Z,190
2023-01-25T09:49:57.507Z,190
2023-01-25T09:50:57.127Z,180
2023-01-25T09:51:57.388Z,175
2023-01-25T09:52:57.607Z,185
2023-01-25T09:53:57.139Z,190
2023-01-25T09:54:57.566Z,190
2023-01-25T09:55:57.580Z,200
2023-01-25T09:56:56.955Z,200
2023-01-25T09:57:57.385Z,200
2023-01-25T09:58:57.293Z,200
2023-01-25T09:59:57.210Z,205
2023-01-25T10:00:57.468Z,200
2023-01-25T10:01:57.297Z,195
2023-01-25T10:02:57.487Z,195
2023-01-25T10:03:57.406Z,200
2023-01-25T10:04:57.349Z,210
2023-01-25T10:05:57.212Z,205
2023-01-25T10:07:09.225Z,200
2023-01-25T10:07:56.612Z,205
2023-01-25T10:08:57.319Z,210
2023-01-25T10:09:57.354Z,215
2023-01-25T10:10:57.016Z,210
2023-01-25T10:11:57.284Z,210
2023-01-25T10:12:57.250Z,215
2023-01-25T10:13:57.333Z,205
2023-01-25T10:14:56.799Z,205
2023-01-25T10:15:57.301Z,205
2023-01-25T10:16:57.235Z,205
2023-01-25T10:17:56.913Z,210
2023-01-25T10:18:56.605Z,220
2023-01-25T10:19:57.113Z,215
2023-01-25T10:20:56.068Z,210
2023-01-25T10:21:56.625Z,210
2023-01-25T10:22:57.078Z,210
2023-01-25T10:23:57.063Z,205
2023-01-25T10:24:56.515Z,195
2023-01-25T10:25:56.861Z,190
2023-01-25T10:26:57.010Z,175
2023-01-25T10:27:56.992Z,170
2023-01-25T10:28:56.938Z,190
2023-01-25T10:29:57.028Z,205
2023-01-25T10:30:57.166Z,210
2023-01-25T10:31:57.254Z,200
2023-01-25T10:33:04.778Z,180
2023-01-25T10:33:56.871Z,190
2023-01-25T10:35:05.756Z,190
2023-01-25T10:35:56.855Z,185
2023-01-25T10:36:58.043Z,185
2023-01-25T10:37:56.379Z,195
2023-01-25T10:38:56.293Z,210
2023-01-25T10:39:56.522Z,220
2023-01-25T10:40:56.768Z,230
2023-01-25T10:41:57.525Z,225
2023-01-25T10:42:56.689Z,220
2023-01-25T10:43:56.712Z,210
2023-01-25T10:44:56.591Z,215
2023-01-25T10:45:56.797Z,225
2023-01-25T10:46:56.695Z,220
2023-01-25T10:47:56.631Z,220
2023-01-25T10:48:56.406Z,215
2023-01-25T10:49:56.484Z,215
2023-01-25T10:50:56.554Z,210
2023-01-25T10:51:56.567Z,205
2023-01-25T10:52:55.995Z,205
2023-01-25T10:53:55.985Z,210
2023-01-25T10:54:55.774Z,220
2023-01-25T10:55:56.190Z,220
2023-01-25T10:56:56.540Z,225
2023-01-25T10:57:56.269Z,225
2023-01-25T10:58:56.435Z,215
2023-01-25T10:59:56.085Z,215
2023-01-25T11:00:56.208Z,220
2023-01-25T11:01:56.904Z,225
2023-01-25T11:02:56.445Z,220
2023-01-25T11:03:55.850Z,220
2023-01-25T11:04:56.089Z,220
2023-01-25T11:05:56.290Z,215
2023-01-25T11:06:55.828Z,220
2023-01-25T11:07:55.772Z,215
2023-01-25T11:08:56.224Z,220
2023-01-25T11:09:55.999Z,225
2023-01-25T11:10:55.941Z,225
2023-01-25T11:11:56.206Z,225
2023-01-25T11:12:55.655Z,230
2023-01-25T11:13:56.232Z,225
2023-01-25T11:14:55.719Z,225
2023-01-25T11:15:56.486Z,225
2023-01-25T11:16:56.145Z,220
2023-01-25T11:17:58.269Z,225
2023-01-25T11:18:55.800Z,225
2023-01-25T11:19:55.836Z,235
2023-01-25T11:20:56.242Z,245
2023-01-25T11:21:55.778Z,245
2023-01-25T11:22:55.839Z,245
2023-01-25T11:23:58.683Z,245
2023-01-25T11:24:55.755Z,240
2023-01-25T11:25:55.364Z,240
2023-01-25T11:26:55.428Z,235
2023-01-25T11:27:55.650Z,240
2023-01-25T11:28:55.909Z,240
2023-01-25T11:29:55.910Z,240
2023-01-25T11:30:55.796Z,240
2023-01-25T11:31:56.403Z,240
2023-01-25T11:32:55.044Z,240
2023-01-25T11:33:55.689Z,240
2023-01-25T11:34:55.788Z,245
2023-01-25T11:35:55.243Z,250
2023-01-25T11:36:55.504Z,255
2023-01-25T11:37:55.222Z,250
2023-01-25T11:38:55.465Z,245
2023-01-25T11:39:55.793Z,240
2023-01-25T11:40:55.193Z,245
2023-01-25T11:41:55.198Z,250
2023-01-25T11:42:55.660Z,250
2023-01-25T11:43:55.384Z,245
2023-01-25T11:44:55.559Z,245
2023-01-25T11:45:55.597Z,245
2023-01-25T11:46:55.045Z,245
2023-01-25T11:47:55.616Z,235
2023-01-25T11:48:55.289Z,240
2023-01-25T11:49:55.627Z,240
2023-01-25T11:50:55.346Z,240
2023-01-25T11:51:59.683Z,235
2023-01-25T11:52:55.243Z,225
2023-01-25T11:53:55.753Z,215
2023-01-25T11:54:55.455Z,210
2023-01-25T11:55:55.696Z,200
2023-01-25T11:56:55.416Z,190
2023-01-25T11:57:55.499Z,210
2023-01-25T11:58:55.111Z,220
2023-01-25T11:59:55.344Z,215
2023-01-25T12:00:55.346Z,215
2023-01-25T12:01:55.589Z,225
2023-01-25T12:02:55.645Z,230
2023-01-25T12:03:55.624Z,235
2023-01-25T12:04:55.076Z,235
2023-01-25T12:05:55.354Z,235
2023-01-25T12:06:55.500Z,235
2023-01-25T12:07:55.250Z,230
2023-01-25T12:08:55.197Z,230
2023-01-25T12:09:54.919Z,225
2023-01-25T12:10:54.947Z,225
2023-01-25T12:11:55.162Z,225
2023-01-25T12:12:55.518Z,225
2023-01-25T12:13:55.139Z,225
2023-01-25T12:14:54.864Z,230
2023-01-25T12:15:55.430Z,225
2023-01-25T12:16:54.545Z,205
2023-01-25T12:17:55.136Z,190
2023-01-25T12:18:54.859Z,200
2023-01-25T12:19:55.028Z,205
2023-01-25T12:20:54.934Z,210
2023-01-25T12:21:55.355Z,220
2023-01-25T12:22:55.170Z,225
2023-01-25T12:23:55.510Z,230
2023-01-25T12:24:54.947Z,235
2023-01-25T12:25:54.920Z,235
2023-01-25T12:26:55.395Z,230
2023-01-25T12:27:54.628Z,225
2023-01-25T12:28:54.934Z,225
2023-01-25T12:29:54.927Z,225
2023-01-25T12:30:55.150Z,230
2023-01-25T12:31:54.949Z,230
2023-01-25T12:33:05.527Z,225
2023-01-25T12:33:55.013Z,220
2023-01-25T12:34:54.712Z,220
2023-01-25T12:35:55.117Z,215
2023-01-25T12:36:54.861Z,220
2023-01-25T12:37:55.180Z,220
2023-01-25T12:38:55.058Z,220
2023-01-25T12:39:54.511Z,220
2023-01-25T12:40:54.549Z,220
2023-01-25T12:41:54.485Z,215
2023-01-25T12:42:54.742Z,220
2023-01-25T12:43:54.960Z,215
2023-01-25T12:44:54.418Z,210
2023-01-25T12:45:54.639Z,210
2023-01-25T12:46:55.233Z,205
2023-01-25T12:47:54.392Z,195
2023-01-25T12:48:54.625Z,195
2023-01-25T12:49:54.359Z,195
2023-01-25T12:50:54.778Z,195
2023-01-25T12:51:54.861Z,195
2023-01-25T12:52:54.273Z,190
2023-01-25T12:53:54.906Z,190
2023-01-25T12:54:56.768Z,195
2023-01-25T12:55:54.486Z,195
2023-01-25T12:56:54.465Z,195
2023-01-25T12:57:54.472Z,195
2023-01-25T12:58:54.196Z,195
2023-01-25T12:59:54.670Z,190
2023-01-25T13:00:54.894Z,185
2023-01-25T13:01:54.712Z,175
2023-01-25T13:02:54.356Z,155
2023-01-25T13:03:54.103Z,140
2023-01-25T13:04:54.334Z,130
2023-01-25T13:05:54.583Z,130
2023-01-25T13:06:53.782Z,130
2023-01-25T13:07:54.616Z,135
2023-01-25T13:08:56.107Z,115
2023-01-25T13:09:54.303Z,110
2023-01-25T13:10:54.205Z,110
2023-01-25T13:11:53.712Z,105
2023-01-25T13:12:53.922Z,105
2023-01-25T13:13:53.919Z,115
2023-01-25T13:14:54.433Z,125
2023-01-25T13:15:54.606Z,140
2023-01-25T13:17:12.876Z,130
2023-01-25T13:17:53.821Z,120
2023-01-25T13:18:53.873Z,130
2023-01-25T13:19:53.829Z,130
2023-01-25T13:20:54.084Z,125
2023-01-25T13:21:53.767Z,130
2023-01-25T13:22:54.004Z,145
2023-01-25T13:23:54.673Z,150
2023-01-25T13:24:54.253Z,150
2023-01-25T13:25:54.288Z,145
2023-01-25T13:26:53.946Z,140
2023-01-25T13:27:53.682Z,150
2023-01-25T13:28:53.747Z,145
2023-01-25T13:29:54.165Z,150
2023-01-25T13:30:54.255Z,150
2023-01-25T13:32:06.272Z,150
2023-01-25T13:32:54.080Z,150
2023-01-25T13:33:53.310Z,150
2023-01-25T13:34:54.058Z,155
2023-01-25T13:35:53.848Z,155
2023-01-25T13:36:53.480Z,155
2023-01-25T13:37:53.480Z,155
2023-01-25T13:38:53.711Z,150
2023-01-25T13:39:54.108Z,145
2023-01-25T13:40:54.278Z,145
2023-01-25T13:41:53.801Z,145
2023-01-25T13:42:53.690Z,145
2023-01-25T13:43:53.942Z,145
2023-01-25T13:44:56.429Z,145
2023-01-25T13:45:54.253Z,140
2023-01-25T13:46:53.876Z,140
2023-01-25T13:47:54.147Z,135
2023-01-25T13:48:53.864Z,135
2023-01-25T13:49:54.163Z,135
2023-01-25T13:50:53.840Z,135
2023-01-25T13:51:53.528Z,130
2023-01-25T13:52:53.796Z,130
2023-01-25T13:53:53.883Z,130
2023-01-25T13:54:53.879Z,125
2023-01-25T13:55:53.849Z,125
2023-01-25T13:56:53.778Z,125
2023-01-25T13:57:54.162Z,120
2023-01-25T13:58:53.979Z,125
2023-01-25T14:00:11.629Z,125
2023-01-25T14:00:54.322Z,125
2023-01-25T14:01:53.894Z,125
2023-01-25T14:02:56.527Z,120
2023-01-25T14:03:53.415Z,115
2023-01-25T14:04:53.309Z,115
2023-01-25T14:05:53.301Z,115
2023-01-25T14:06:53.786Z,110
2023-01-25T14:07:53.018Z,110
2023-01-25T14:08:52.999Z,110
2023-01-25T14:09:53.717Z,105
2023-01-25T14:10:53.241Z,105
2023-01-25T14:11:53.231Z,105
2023-01-25T14:12:53.765Z,105
2023-01-25T14:13:53.723Z,100
2023-01-25T14:14:53.370Z,100
2023-01-25T14:15:53.235Z,100
2023-01-25T14:16:53.355Z,100
2023-01-25T14:17:53.068Z,100
2023-01-25T14:18:53.304Z,100
2023-01-25T14:19:53.309Z,100
2023-01-25T14:20:53.008Z,100
2023-01-25T14:21:53.294Z,95
2023-01-25T14:22:53.472Z,95
2023-01-25T14:23:53.187Z,95
2023-01-25T14:24:53.214Z,95
2023-01-25T14:25:52.940Z,90
2023-01-25T14:26:53.420Z,90
2023-01-25T14:27:53.179Z,90
2023-01-25T14:29:14.325Z,90
2023-01-25T14:29:53.427Z,90
2023-01-25T14:30:53.567Z,90
2023-01-25T14:31:53.779Z,90
2023-01-25T14:32:53.053Z,85